Elmwood, NE

12:02 AM CDT on October 01, 2014 (GMT -0500)
274th & Fletcher Ave | Change Station
CLOSE
Current Station
Personal Weather Station
Location: Elmwood, NE
Elevation: 1290 ft
Nearby Weather Stations

Elev 1290 ft 40.87 °N, 96.33 °W | Updated 5 seconds ago

Thunderstorm
Thunderstorm
63.3 °F
Feels Like 63.3 °F
N
10.0
Wind Variable Wind from East
Gusts 19.0 mph

Today
High -- | Low -- °F
--% Chance of Precip.
Yesterday
High -- | Low -- °F
Precip. -- in
7:21 AM 7:07 PM
Waxing Crescent, 43% visible
Pressure 29.79 in
Visibility 5.0 miles
Clouds
Dew Point 62 °F
Humidity 97%
Rainfall 1.41 in
Snow Depth Not available.
UV Not available.
Pollen 4.20 out of 12
Air Quality Not available.
Flu Activity Not available.
METAR KPMV 010315Z AUTO 08006KT 5SM TSRA 18/17 A2979 RMK AO2 LTG DSNT S THRU W P0005 T01800170

More Conditions Fewer Conditions

Pressure 29.79 in
Visibility 5.0 miles
Clouds
Dew Point 62 °F
Humidity 97%
Rainfall 1.41 in
Snow Depth Not available.
UV Not available.
Pollen 4.20 out of 12
Air Quality Not available.
Flu Activity Not available.
METAR KPMV 010315Z AUTO 08006KT 5SM TSRA 18/17 A2979 RMK AO2 LTG DSNT S THRU W P0005 T01800170

More Conditions Fewer Conditions

10-Day Weather Forecast

Almanac

Astronomy

Oct. 01, 2014 Rise Set
Actual Time 7:21 AM CDT 7:07 PM CDT
Civil Twilight 6:54 AM CDT 7:34 PM CDT
Nautical Twilight 6:22 AM CDT 8:06 PM CDT
Astronomical Twilight 5:50 AM CDT 8:38 PM CDT
Moon 2:25 PM CDT No Moon Set
Length of Visible Light 12h 40m
Length of Day
11h 45m
Tomorrow will be 2m 41s shorter.
Waxing Crescent, 43% of the Moon is Illuminated
Today
Waxing Crescent
Oct 1
First Quarter
Oct 8
Full
Oct 15
Last Quarter
Oct 23
New

Today's Extremes

State Highs State Lows

Community

WunderPhotos

Upload Photos

1,757,850 photos uploaded!

Nearby

Snow Depth

Station Depth Elevation
No new snow has been reported.

Earthquake Activity

City Distance Mag. Time & Date
No recent earthquake activity has been reported nearby.
Minimum magnitude displayed is 2.5.

Coastal Water Temperatures

Place Temperature
No Stations Reporting

Nearby Weather Stations